sensor_id;sensor_type;location;lat;lon;timestamp;P1;durP1;ratioP1;P2;durP2;ratioP2
18172;SDS011;9211;48.818;9.312;2023-07-28T00:00:09;6.30;;;3.20;;
18172;SDS011;9211;48.818;9.312;2023-07-28T00:02:41;6.35;;;3.50;;
18172;SDS011;9211;48.818;9.312;2023-07-28T00:05:10;6.05;;;3.35;;
18172;SDS011;9211;48.818;9.312;2023-07-28T00:07:36;8.98;;;3.25;;
18172;SDS011;9211;48.818;9.312;2023-07-28T00:10:04;6.67;;;3.43;;
18172;SDS011;9211;48.818;9.312;2023-07-28T00:12:31;4.20;;;3.08;;
18172;SDS011;9211;48.818;9.312;2023-07-28T00:14:58;6.47;;;3.38;;
18172;SDS011;9211;48.818;9.312;2023-07-28T00:17:25;6.70;;;3.30;;
18172;SDS011;9211;48.818;9.312;2023-07-28T00:19:52;5.00;;;3.38;;
18172;SDS011;9211;48.818;9.312;2023-07-28T00:22:20;5.68;;;3.10;;
18172;SDS011;9211;48.818;9.312;2023-07-28T00:24:47;5.57;;;3.08;;
18172;SDS011;9211;48.818;9.312;2023-07-28T00:27:14;5.88;;;3.30;;
18172;SDS011;9211;48.818;9.312;2023-07-28T00:29:41;4.50;;;3.30;;
18172;SDS011;9211;48.818;9.312;2023-07-28T00:32:08;5.65;;;3.30;;
18172;SDS011;9211;48.818;9.312;2023-07-28T00:34:35;7.32;;;3.28;;
18172;SDS011;9211;48.818;9.312;2023-07-28T00:37:02;5.57;;;3.40;;
18172;SDS011;9211;48.818;9.312;2023-07-28T00:39:31;5.20;;;3.45;;
18172;SDS011;9211;48.818;9.312;2023-07-28T00:41:59;6.10;;;3.38;;
18172;SDS011;9211;48.818;9.312;2023-07-28T00:44:26;6.33;;;3.20;;
18172;SDS011;9211;48.818;9.312;2023-07-28T00:46:52;8.07;;;3.70;;
18172;SDS011;9211;48.818;9.312;2023-07-28T00:49:19;6.40;;;3.42;;
18172;SDS011;9211;48.818;9.312;2023-07-28T00:51:47;4.90;;;3.07;;
18172;SDS011;9211;48.818;9.312;2023-07-28T00:54:15;5.28;;;3.15;;
18172;SDS011;9211;48.818;9.312;2023-07-28T00:56:44;5.40;;;3.20;;
18172;SDS011;9211;48.818;9.312;2023-07-28T00:59:11;7.63;;;3.67;;
18172;SDS011;9211;48.818;9.312;2023-07-28T01:01:39;4.70;;;3.10;;
18172;SDS011;9211;48.818;9.312;2023-07-28T01:04:05;6.13;;;3.50;;
18172;SDS011;9211;48.818;9.312;2023-07-28T01:06:35;4.60;;;3.10;;
18172;SDS011;9211;48.818;9.312;2023-07-28T01:09:15;6.93;;;3.20;;
18172;SDS011;9211;48.818;9.312;2023-07-28T01:11:55;8.68;;;3.33;;
18172;SDS011;9211;48.818;9.312;2023-07-28T01:14:23;5.00;;;2.90;;
18172;SDS011;9211;48.818;9.312;2023-07-28T01:16:50;4.57;;;2.53;;
18172;SDS011;9211;48.818;9.312;2023-07-28T01:19:18;5.20;;;2.83;;
18172;SDS011;9211;48.818;9.312;2023-07-28T01:21:47;3.83;;;2.70;;
18172;SDS011;9211;48.818;9.312;2023-07-28T01:24:20;5.57;;;2.78;;
18172;SDS011;9211;48.818;9.312;2023-07-28T01:26:55;5.10;;;2.60;;
18172;SDS011;9211;48.818;9.312;2023-07-28T01:29:22;3.45;;;2.70;;
18172;SDS011;9211;48.818;9.312;2023-07-28T01:31:50;4.20;;;2.90;;
18172;SDS011;9211;48.818;9.312;2023-07-28T01:34:17;5.28;;;2.83;;
18172;SDS011;9211;48.818;9.312;2023-07-28T01:36:44;4.30;;;2.78;;
18172;SDS011;9211;48.818;9.312;2023-07-28T01:39:11;4.80;;;3.08;;
18172;SDS011;9211;48.818;9.312;2023-07-28T01:41:38;6.00;;;3.20;;
18172;SDS011;9211;48.818;9.312;2023-07-28T01:44:10;6.18;;;2.90;;
18172;SDS011;9211;48.818;9.312;2023-07-28T01:46:38;3.80;;;2.63;;
18172;SDS011;9211;48.818;9.312;2023-07-28T01:49:05;3.90;;;2.60;;
18172;SDS011;9211;48.818;9.312;2023-07-28T01:51:32;4.28;;;2.78;;
18172;SDS011;9211;48.818;9.312;2023-07-28T01:53:59;4.18;;;2.50;;
18172;SDS011;9211;48.818;9.312;2023-07-28T01:56:26;3.17;;;2.50;;
18172;SDS011;9211;48.818;9.312;2023-07-28T01:58:52;5.70;;;3.20;;
18172;SDS011;9211;48.818;9.312;2023-07-28T02:01:21;6.45;;;3.33;;
18172;SDS011;9211;48.818;9.312;2023-07-28T02:03:48;7.53;;;3.50;;
18172;SDS011;9211;48.818;9.312;2023-07-28T02:06:14;5.55;;;3.58;;
18172;SDS011;9211;48.818;9.312;2023-07-28T02:08:41;7.03;;;3.90;;
18172;SDS011;9211;48.818;9.312;2023-07-28T02:11:08;6.47;;;3.47;;
18172;SDS011;9211;48.818;9.312;2023-07-28T02:13:35;5.93;;;3.30;;
18172;SDS011;9211;48.818;9.312;2023-07-28T02:16:03;6.85;;;3.65;;
18172;SDS011;9211;48.818;9.312;2023-07-28T02:18:31;6.40;;;3.60;;
18172;SDS011;9211;48.818;9.312;2023-07-28T02:20:58;5.87;;;3.60;;
18172;SDS011;9211;48.818;9.312;2023-07-28T02:23:25;6.78;;;3.80;;
18172;SDS011;9211;48.818;9.312;2023-07-28T02:25:52;6.05;;;3.75;;
18172;SDS011;9211;48.818;9.312;2023-07-28T02:28:19;5.50;;;3.50;;
18172;SDS011;9211;48.818;9.312;2023-07-28T02:30:46;5.65;;;3.70;;
18172;SDS011;9211;48.818;9.312;2023-07-28T02:33:13;9.48;;;3.78;;
18172;SDS011;9211;48.818;9.312;2023-07-28T02:35:41;5.38;;;3.50;;
18172;SDS011;9211;48.818;9.312;2023-07-28T02:38:08;6.97;;;3.80;;
18172;SDS011;9211;48.818;9.312;2023-07-28T02:40:35;6.35;;;3.28;;
18172;SDS011;9211;48.818;9.312;2023-07-28T02:43:02;6.43;;;3.50;;
18172;SDS011;9211;48.818;9.312;2023-07-28T02:45:28;7.20;;;3.67;;
18172;SDS011;9211;48.818;9.312;2023-07-28T02:47:55;7.38;;;3.75;;
18172;SDS011;9211;48.818;9.312;2023-07-28T02:50:22;5.93;;;3.72;;
18172;SDS011;9211;48.818;9.312;2023-07-28T02:52:50;8.10;;;3.75;;
18172;SDS011;9211;48.818;9.312;2023-07-28T02:55:17;6.00;;;3.65;;
18172;SDS011;9211;48.818;9.312;2023-07-28T02:57:44;6.72;;;3.80;;
18172;SDS011;9211;48.818;9.312;2023-07-28T03:00:12;6.53;;;3.78;;
18172;SDS011;9211;48.818;9.312;2023-07-28T03:02:39;6.68;;;4.07;;
18172;SDS011;9211;48.818;9.312;2023-07-28T03:05:07;7.95;;;3.60;;
18172;SDS011;9211;48.818;9.312;2023-07-28T03:08:08;5.40;;;3.58;;
18172;SDS011;9211;48.818;9.312;2023-07-28T03:10:35;5.85;;;3.75;;
18172;SDS011;9211;48.818;9.312;2023-07-28T03:13:02;7.37;;;3.73;;
18172;SDS011;9211;48.818;9.312;2023-07-28T03:15:29;7.60;;;3.70;;
18172;SDS011;9211;48.818;9.312;2023-07-28T03:17:56;6.57;;;3.53;;
18172;SDS011;9211;48.818;9.312;2023-07-28T03:20:22;7.22;;;3.90;;
18172;SDS011;9211;48.818;9.312;2023-07-28T03:22:49;6.40;;;3.80;;
18172;SDS011;9211;48.818;9.312;2023-07-28T03:25:18;6.50;;;3.70;;
18172;SDS011;9211;48.818;9.312;2023-07-28T03:27:45;5.82;;;3.60;;
18172;SDS011;9211;48.818;9.312;2023-07-28T03:30:12;7.10;;;3.60;;
18172;SDS011;9211;48.818;9.312;2023-07-28T03:32:39;8.35;;;3.90;;
18172;SDS011;9211;48.818;9.312;2023-07-28T03:35:06;7.88;;;3.78;;
18172;SDS011;9211;48.818;9.312;2023-07-28T03:37:39;5.75;;;3.63;;
18172;SDS011;9211;48.818;9.312;2023-07-28T03:40:06;8.43;;;3.80;;
18172;SDS011;9211;48.818;9.312;2023-07-28T03:42:46;6.67;;;3.70;;
18172;SDS011;9211;48.818;9.312;2023-07-28T03:45:13;5.00;;;3.65;;
18172;SDS011;9211;48.818;9.312;2023-07-28T03:47:41;6.78;;;3.80;;
18172;SDS011;9211;48.818;9.312;2023-07-28T03:50:08;6.72;;;3.78;;
18172;SDS011;9211;48.818;9.312;2023-07-28T03:52:35;5.60;;;3.33;;
18172;SDS011;9211;48.818;9.312;2023-07-28T03:55:02;6.07;;;3.60;;
18172;SDS011;9211;48.818;9.312;2023-07-28T03:57:30;6.13;;;3.50;;
18172;SDS011;9211;48.818;9.312;2023-07-28T03:59:58;5.80;;;3.50;;
18172;SDS011;9211;48.818;9.312;2023-07-28T04:02:25;6.97;;;3.53;;
18172;SDS011;9211;48.818;9.312;2023-07-28T04:04:53;6.00;;;3.60;;
18172;SDS011;9211;48.818;9.312;2023-07-28T04:07:20;6.67;;;3.60;;
18172;SDS011;9211;48.818;9.312;2023-07-28T04:09:47;6.07;;;3.72;;
18172;SDS011;9211;48.818;9.312;2023-07-28T04:12:14;5.78;;;3.67;;
18172;SDS011;9211;48.818;9.312;2023-07-28T04:14:41;5.88;;;4.00;;
18172;SDS011;9211;48.818;9.312;2023-07-28T04:17:09;4.90;;;3.70;;
18172;SDS011;9211;48.818;9.312;2023-07-28T04:19:37;7.13;;;3.63;;
18172;SDS011;9211;48.818;9.312;2023-07-28T04:22:04;6.50;;;3.55;;
18172;SDS011;9211;48.818;9.312;2023-07-28T04:24:34;5.65;;;3.80;;
18172;SDS011;9211;48.818;9.312;2023-07-28T04:27:01;6.13;;;3.60;;
18172;SDS011;9211;48.818;9.312;2023-07-28T04:29:28;6.75;;;3.80;;
18172;SDS011;9211;48.818;9.312;2023-07-28T04:31:55;6.65;;;3.83;;
18172;SDS011;9211;48.818;9.312;2023-07-28T04:34:32;7.37;;;3.73;;
18172;SDS011;9211;48.818;9.312;2023-07-28T04:37:13;9.15;;;3.75;;
18172;SDS011;9211;48.818;9.312;2023-07-28T04:40:00;7.78;;;3.95;;
18172;SDS011;9211;48.818;9.312;2023-07-28T04:42:32;7.57;;;3.80;;
18172;SDS011;9211;48.818;9.312;2023-07-28T04:45:00;6.95;;;3.97;;
18172;SDS011;9211;48.818;9.312;2023-07-28T04:47:27;6.20;;;3.85;;
18172;SDS011;9211;48.818;9.312;2023-07-28T04:49:55;8.52;;;4.00;;
18172;SDS011;9211;48.818;9.312;2023-07-28T04:52:41;6.35;;;3.92;;
18172;SDS011;9211;48.818;9.312;2023-07-28T04:55:21;5.63;;;3.90;;
18172;SDS011;9211;48.818;9.312;2023-07-28T04:57:48;7.82;;;4.20;;
18172;SDS011;9211;48.818;9.312;2023-07-28T05:00:16;7.68;;;3.60;;
18172;SDS011;9211;48.818;9.312;2023-07-28T05:02:42;7.00;;;3.95;;
18172;SDS011;9211;48.818;9.312;2023-07-28T05:05:11;7.63;;;3.60;;
18172;SDS011;9211;48.818;9.312;2023-07-28T05:07:37;8.43;;;4.07;;
18172;SDS011;9211;48.818;9.312;2023-07-28T05:10:05;6.65;;;4.07;;
18172;SDS011;9211;48.818;9.312;2023-07-28T05:12:33;7.20;;;3.83;;
18172;SDS011;9211;48.818;9.312;2023-07-28T05:15:00;6.15;;;3.83;;
18172;SDS011;9211;48.818;9.312;2023-07-28T05:17:26;8.50;;;4.10;;
18172;SDS011;9211;48.818;9.312;2023-07-28T05:20:13;7.80;;;4.18;;
18172;SDS011;9211;48.818;9.312;2023-07-28T05:22:52;7.65;;;4.30;;
18172;SDS011;9211;48.818;9.312;2023-07-28T05:25:21;7.13;;;4.28;;
18172;SDS011;9211;48.818;9.312;2023-07-28T05:27:48;7.70;;;4.10;;
18172;SDS011;9211;48.818;9.312;2023-07-28T05:30:15;6.87;;;4.20;;
18172;SDS011;9211;48.818;9.312;2023-07-28T05:32:42;7.20;;;4.05;;
18172;SDS011;9211;48.818;9.312;2023-07-28T05:35:20;8.75;;;4.10;;
18172;SDS011;9211;48.818;9.312;2023-07-28T05:37:47;8.87;;;4.67;;
18172;SDS011;9211;48.818;9.312;2023-07-28T05:40:14;7.30;;;4.10;;
18172;SDS011;9211;48.818;9.312;2023-07-28T05:42:41;6.07;;;4.00;;
18172;SDS011;9211;48.818;9.312;2023-07-28T05:45:08;7.83;;;4.40;;
18172;SDS011;9211;48.818;9.312;2023-07-28T05:47:36;8.75;;;4.40;;
18172;SDS011;9211;48.818;9.312;2023-07-28T05:50:04;9.17;;;4.37;;
18172;SDS011;9211;48.818;9.312;2023-07-28T05:52:33;9.43;;;4.10;;
18172;SDS011;9211;48.818;9.312;2023-07-28T05:55:00;7.68;;;3.95;;
18172;SDS011;9211;48.818;9.312;2023-07-28T05:57:27;8.20;;;4.07;;
18172;SDS011;9211;48.818;9.312;2023-07-28T05:59:54;6.22;;;3.97;;
18172;SDS011;9211;48.818;9.312;2023-07-28T06:02:21;8.82;;;3.90;;
18172;SDS011;9211;48.818;9.312;2023-07-28T06:04:52;7.63;;;4.17;;
18172;SDS011;9211;48.818;9.312;2023-07-28T06:07:19;8.43;;;4.50;;
18172;SDS011;9211;48.818;9.312;2023-07-28T06:09:48;8.05;;;4.28;;
18172;SDS011;9211;48.818;9.312;2023-07-28T06:12:16;8.35;;;4.60;;
18172;SDS011;9211;48.818;9.312;2023-07-28T06:14:43;9.48;;;4.90;;
18172;SDS011;9211;48.818;9.312;2023-07-28T06:17:11;9.90;;;4.63;;
18172;SDS011;9211;48.818;9.312;2023-07-28T06:19:38;8.82;;;4.80;;
18172;SDS011;9211;48.818;9.312;2023-07-28T06:22:07;11.85;;;4.65;;
18172;SDS011;9211;48.818;9.312;2023-07-28T06:24:40;10.73;;;4.55;;
18172;SDS011;9211;48.818;9.312;2023-07-28T06:27:08;16.27;;;5.17;;
18172;SDS011;9211;48.818;9.312;2023-07-28T06:29:37;10.23;;;4.93;;
18172;SDS011;9211;48.818;9.312;2023-07-28T06:32:05;9.73;;;4.30;;
18172;SDS011;9211;48.818;9.312;2023-07-28T06:34:33;7.80;;;4.47;;
18172;SDS011;9211;48.818;9.312;2023-07-28T06:36:59;11.52;;;5.38;;
18172;SDS011;9211;48.818;9.312;2023-07-28T06:39:27;12.97;;;5.40;;
18172;SDS011;9211;48.818;9.312;2023-07-28T06:41:55;14.10;;;5.55;;
18172;SDS011;9211;48.818;9.312;2023-07-28T06:44:25;13.40;;;5.40;;
18172;SDS011;9211;48.818;9.312;2023-07-28T06:46:52;16.70;;;6.43;;
18172;SDS011;9211;48.818;9.312;2023-07-28T06:49:19;17.70;;;6.50;;
18172;SDS011;9211;48.818;9.312;2023-07-28T06:51:46;14.20;;;6.05;;
18172;SDS011;9211;48.818;9.312;2023-07-28T06:54:13;19.23;;;6.50;;
18172;SDS011;9211;48.818;9.312;2023-07-28T06:56:40;12.98;;;5.88;;
18172;SDS011;9211;48.818;9.312;2023-07-28T06:59:07;16.30;;;6.50;;
18172;SDS011;9211;48.818;9.312;2023-07-28T07:01:37;12.95;;;5.97;;
18172;SDS011;9211;48.818;9.312;2023-07-28T07:04:04;13.43;;;6.20;;
18172;SDS011;9211;48.818;9.312;2023-07-28T07:06:31;15.30;;;6.07;;
18172;SDS011;9211;48.818;9.312;2023-07-28T07:08:58;14.10;;;5.70;;
18172;SDS011;9211;48.818;9.312;2023-07-28T07:11:25;12.50;;;5.63;;
18172;SDS011;9211;48.818;9.312;2023-07-28T07:13:52;11.90;;;5.45;;
18172;SDS011;9211;48.818;9.312;2023-07-28T07:16:19;14.10;;;6.10;;
18172;SDS011;9211;48.818;9.312;2023-07-28T07:18:48;16.30;;;6.00;;
18172;SDS011;9211;48.818;9.312;2023-07-28T07:21:14;12.00;;;5.32;;
18172;SDS011;9211;48.818;9.312;2023-07-28T07:23:41;11.30;;;5.30;;
18172;SDS011;9211;48.818;9.312;2023-07-28T07:26:24;11.50;;;5.13;;
18172;SDS011;9211;48.818;9.312;2023-07-28T07:28:50;10.35;;;4.90;;
18172;SDS011;9211;48.818;9.312;2023-07-28T07:31:18;12.60;;;5.20;;
18172;SDS011;9211;48.818;9.312;2023-07-28T07:33:44;10.02;;;5.20;;
18172;SDS011;9211;48.818;9.312;2023-07-28T07:36:13;9.52;;;5.05;;
18172;SDS011;9211;48.818;9.312;2023-07-28T07:38:40;8.10;;;4.53;;
18172;SDS011;9211;48.818;9.312;2023-07-28T07:41:07;8.83;;;4.60;;
18172;SDS011;9211;48.818;9.312;2023-07-28T07:43:36;9.27;;;4.82;;
18172;SDS011;9211;48.818;9.312;2023-07-28T07:46:03;9.40;;;4.90;;
18172;SDS011;9211;48.818;9.312;2023-07-28T07:48:30;7.63;;;4.60;;
18172;SDS011;9211;48.818;9.312;2023-07-28T07:50:57;9.82;;;5.32;;
18172;SDS011;9211;48.818;9.312;2023-07-28T07:53:25;10.52;;;5.10;;
18172;SDS011;9211;48.818;9.312;2023-07-28T07:55:52;9.35;;;4.75;;
18172;SDS011;9211;48.818;9.312;2023-07-28T07:58:19;9.18;;;4.80;;
18172;SDS011;9211;48.818;9.312;2023-07-28T08:00:47;7.93;;;4.20;;
18172;SDS011;9211;48.818;9.312;2023-07-28T08:03:14;6.28;;;3.85;;
18172;SDS011;9211;48.818;9.312;2023-07-28T08:05:41;7.30;;;4.32;;
18172;SDS011;9211;48.818;9.312;2023-07-28T08:08:08;8.07;;;4.10;;
18172;SDS011;9211;48.818;9.312;2023-07-28T08:10:36;9.90;;;4.47;;
18172;SDS011;9211;48.818;9.312;2023-07-28T08:13:05;9.02;;;4.70;;
18172;SDS011;9211;48.818;9.312;2023-07-28T08:15:32;7.63;;;4.63;;
18172;SDS011;9211;48.818;9.312;2023-07-28T08:17:59;12.57;;;7.03;;
18172;SDS011;9211;48.818;9.312;2023-07-28T08:20:26;8.75;;;4.95;;
18172;SDS011;9211;48.818;9.312;2023-07-28T08:22:53;8.65;;;4.90;;
18172;SDS011;9211;48.818;9.312;2023-07-28T08:25:20;8.38;;;4.63;;
18172;SDS011;9211;48.818;9.312;2023-07-28T08:27:49;8.85;;;4.47;;
18172;SDS011;9211;48.818;9.312;2023-07-28T08:30:16;9.90;;;4.70;;
18172;SDS011;9211;48.818;9.312;2023-07-28T08:32:43;11.70;;;4.70;;
18172;SDS011;9211;48.818;9.312;2023-07-28T08:35:10;14.25;;;6.28;;
18172;SDS011;9211;48.818;9.312;2023-07-28T08:37:37;10.48;;;4.75;;
18172;SDS011;9211;48.818;9.312;2023-07-28T08:40:04;9.88;;;4.53;;
18172;SDS011;9211;48.818;9.312;2023-07-28T08:45:04;10.73;;;4.93;;
18172;SDS011;9211;48.818;9.312;2023-07-28T08:47:33;13.52;;;6.85;;
18172;SDS011;9211;48.818;9.312;2023-07-28T08:50:00;88.90;;;53.15;;
18172;SDS011;9211;48.818;9.312;2023-07-28T08:52:27;39.00;;;22.25;;
18172;SDS011;9211;48.818;9.312;2023-07-28T08:54:54;24.50;;;16.20;;
18172;SDS011;9211;48.818;9.312;2023-07-28T08:57:21;33.67;;;19.92;;
18172;SDS011;9211;48.818;9.312;2023-07-28T08:59:48;20.15;;;13.05;;
18172;SDS011;9211;48.818;9.312;2023-07-28T09:02:17;23.02;;;13.73;;
18172;SDS011;9211;48.818;9.312;2023-07-28T09:04:45;24.05;;;14.32;;
18172;SDS011;9211;48.818;9.312;2023-07-28T09:07:13;23.90;;;13.13;;
18172;SDS011;9211;48.818;9.312;2023-07-28T09:09:41;23.02;;;14.38;;
18172;SDS011;9211;48.818;9.312;2023-07-28T09:12:08;22.33;;;13.80;;
18172;SDS011;9211;48.818;9.312;2023-07-28T09:14:35;16.73;;;10.55;;
18172;SDS011;9211;48.818;9.312;2023-07-28T09:17:06;17.83;;;10.70;;
18172;SDS011;9211;48.818;9.312;2023-07-28T09:19:36;16.25;;;10.80;;
18172;SDS011;9211;48.818;9.312;2023-07-28T09:22:16;21.58;;;12.95;;
18172;SDS011;9211;48.818;9.312;2023-07-28T09:24:43;18.42;;;9.98;;
18172;SDS011;9211;48.818;9.312;2023-07-28T09:27:19;15.15;;;10.38;;
18172;SDS011;9211;48.818;9.312;2023-07-28T09:29:47;17.20;;;10.57;;
18172;SDS011;9211;48.818;9.312;2023-07-28T09:32:14;12.03;;;7.67;;
18172;SDS011;9211;48.818;9.312;2023-07-28T09:34:43;12.00;;;7.03;;
18172;SDS011;9211;48.818;9.312;2023-07-28T09:37:10;8.68;;;5.60;;
18172;SDS011;9211;48.818;9.312;2023-07-28T09:39:38;9.80;;;6.70;;
18172;SDS011;9211;48.818;9.312;2023-07-28T09:42:07;13.50;;;6.78;;
18172;SDS011;9211;48.818;9.312;2023-07-28T09:44:35;13.35;;;5.90;;
18172;SDS011;9211;48.818;9.312;2023-07-28T09:47:02;10.75;;;6.20;;
18172;SDS011;9211;48.818;9.312;2023-07-28T09:49:35;8.07;;;5.30;;
18172;SDS011;9211;48.818;9.312;2023-07-28T09:52:05;8.05;;;4.60;;
18172;SDS011;9211;48.818;9.312;2023-07-28T09:54:38;10.05;;;6.20;;
18172;SDS011;9211;48.818;9.312;2023-07-28T09:57:06;12.85;;;7.70;;
18172;SDS011;9211;48.818;9.312;2023-07-28T09:59:39;14.55;;;7.80;;
18172;SDS011;9211;48.818;9.312;2023-07-28T10:02:07;14.10;;;7.25;;
18172;SDS011;9211;48.818;9.312;2023-07-28T10:04:35;11.43;;;6.78;;
18172;SDS011;9211;48.818;9.312;2023-07-28T10:07:05;7.47;;;5.13;;
18172;SDS011;9211;48.818;9.312;2023-07-28T10:09:33;8.75;;;6.03;;
18172;SDS011;9211;48.818;9.312;2023-07-28T10:12:02;11.27;;;7.32;;
18172;SDS011;9211;48.818;9.312;2023-07-28T10:14:30;18.38;;;8.73;;
18172;SDS011;9211;48.818;9.312;2023-07-28T10:17:02;10.65;;;6.40;;
18172;SDS011;9211;48.818;9.312;2023-07-28T10:19:33;8.02;;;5.13;;
18172;SDS011;9211;48.818;9.312;2023-07-28T10:22:01;7.30;;;4.20;;
18172;SDS011;9211;48.818;9.312;2023-07-28T10:24:52;24.20;;;11.80;;
18172;SDS011;9211;48.818;9.312;2023-07-28T10:27:30;19.52;;;9.85;;
18172;SDS011;9211;48.818;9.312;2023-07-28T10:29:57;17.48;;;8.45;;
18172;SDS011;9211;48.818;9.312;2023-07-28T10:32:26;33.03;;;13.00;;
18172;SDS011;9211;48.818;9.312;2023-07-28T10:35:00;17.33;;;9.80;;
18172;SDS011;9211;48.818;9.312;2023-07-28T10:37:27;13.88;;;8.05;;
18172;SDS011;9211;48.818;9.312;2023-07-28T10:42:49;17.58;;;6.00;;
18172;SDS011;9211;48.818;9.312;2023-07-28T10:45:17;12.20;;;5.30;;
18172;SDS011;9211;48.818;9.312;2023-07-28T10:47:45;12.02;;;5.18;;
18172;SDS011;9211;48.818;9.312;2023-07-28T10:50:13;7.55;;;4.32;;
18172;SDS011;9211;48.818;9.312;2023-07-28T10:52:40;5.90;;;3.95;;
18172;SDS011;9211;48.818;9.312;2023-07-28T10:55:11;7.10;;;3.60;;
18172;SDS011;9211;48.818;9.312;2023-07-28T10:57:41;7.13;;;3.30;;
18172;SDS011;9211;48.818;9.312;2023-07-28T11:00:09;5.93;;;3.15;;
18172;SDS011;9211;48.818;9.312;2023-07-28T11:02:38;14.85;;;6.80;;
18172;SDS011;9211;48.818;9.312;2023-07-28T11:05:09;11.23;;;4.93;;
18172;SDS011;9211;48.818;9.312;2023-07-28T11:07:37;7.82;;;4.00;;
18172;SDS011;9211;48.818;9.312;2023-07-28T11:10:07;6.85;;;3.45;;
18172;SDS011;9211;48.818;9.312;2023-07-28T11:12:34;6.50;;;2.90;;
18172;SDS011;9211;48.818;9.312;2023-07-28T11:15:03;4.25;;;2.30;;
18172;SDS011;9211;48.818;9.312;2023-07-28T11:17:35;4.45;;;2.20;;
18172;SDS011;9211;48.818;9.312;2023-07-28T11:20:03;4.53;;;2.40;;
18172;SDS011;9211;48.818;9.312;2023-07-28T11:22:35;3.47;;;2.38;;
18172;SDS011;9211;48.818;9.312;2023-07-28T11:25:05;3.75;;;2.10;;
18172;SDS011;9211;48.818;9.312;2023-07-28T11:27:34;3.37;;;1.97;;
18172;SDS011;9211;48.818;9.312;2023-07-28T11:30:03;4.10;;;2.30;;
18172;SDS011;9211;48.818;9.312;2023-07-28T11:32:33;3.45;;;2.13;;
18172;SDS011;9211;48.818;9.312;2023-07-28T11:35:04;2.70;;;1.88;;
18172;SDS011;9211;48.818;9.312;2023-07-28T11:37:32;3.67;;;1.92;;
18172;SDS011;9211;48.818;9.312;2023-07-28T11:40:00;4.87;;;2.03;;
18172;SDS011;9211;48.818;9.312;2023-07-28T11:42:32;3.13;;;1.98;;
18172;SDS011;9211;48.818;9.312;2023-07-28T11:45:03;2.90;;;1.90;;
18172;SDS011;9211;48.818;9.312;2023-07-28T11:47:31;3.58;;;1.80;;
18172;SDS011;9211;48.818;9.312;2023-07-28T11:49:58;3.90;;;2.30;;
18172;SDS011;9211;48.818;9.312;2023-07-28T11:52:29;4.10;;;2.50;;
18172;SDS011;9211;48.818;9.312;2023-07-28T11:54:57;3.67;;;2.53;;
18172;SDS011;9211;48.818;9.312;2023-07-28T11:57:25;3.65;;;2.40;;
18172;SDS011;9211;48.818;9.312;2023-07-28T11:59:53;2.80;;;1.70;;
18172;SDS011;9211;48.818;9.312;2023-07-28T12:02:25;3.72;;;2.20;;
18172;SDS011;9211;48.818;9.312;2023-07-28T12:04:53;2.77;;;1.70;;
18172;SDS011;9211;48.818;9.312;2023-07-28T12:07:27;2.35;;;1.60;;
18172;SDS011;9211;48.818;9.312;2023-07-28T12:09:55;2.80;;;1.52;;
18172;SDS011;9211;48.818;9.312;2023-07-28T12:12:27;2.55;;;1.55;;
18172;SDS011;9211;48.818;9.312;2023-07-28T12:14:56;2.88;;;1.60;;
18172;SDS011;9211;48.818;9.312;2023-07-28T12:17:29;2.17;;;1.50;;
18172;SDS011;9211;48.818;9.312;2023-07-28T12:20:00;2.42;;;1.70;;
18172;SDS011;9211;48.818;9.312;2023-07-28T12:22:32;1.67;;;1.40;;
18172;SDS011;9211;48.818;9.312;2023-07-28T12:24:59;3.40;;;1.80;;
18172;SDS011;9211;48.818;9.312;2023-07-28T12:27:26;3.88;;;1.70;;
18172;SDS011;9211;48.818;9.312;2023-07-28T12:29:53;3.15;;;2.00;;
18172;SDS011;9211;48.818;9.312;2023-07-28T12:32:19;3.80;;;1.50;;
18172;SDS011;9211;48.818;9.312;2023-07-28T12:34:48;3.38;;;1.60;;
18172;SDS011;9211;48.818;9.312;2023-07-28T12:37:16;2.83;;;1.70;;
18172;SDS011;9211;48.818;9.312;2023-07-28T12:39:43;2.70;;;1.63;;
18172;SDS011;9211;48.818;9.312;2023-07-28T12:42:10;3.10;;;1.70;;
18172;SDS011;9211;48.818;9.312;2023-07-28T12:44:38;2.90;;;1.75;;
18172;SDS011;9211;48.818;9.312;2023-07-28T12:47:05;2.72;;;1.50;;
18172;SDS011;9211;48.818;9.312;2023-07-28T12:49:32;1.90;;;1.33;;
18172;SDS011;9211;48.818;9.312;2023-07-28T12:52:03;3.92;;;1.52;;
18172;SDS011;9211;48.818;9.312;2023-07-28T12:54:32;1.63;;;1.25;;
18172;SDS011;9211;48.818;9.312;2023-07-28T12:56:58;1.40;;;1.25;;
18172;SDS011;9211;48.818;9.312;2023-07-28T12:59:26;2.08;;;1.33;;
18172;SDS011;9211;48.818;9.312;2023-07-28T13:01:54;2.43;;;1.50;;
18172;SDS011;9211;48.818;9.312;2023-07-28T13:04:21;2.22;;;1.60;;
18172;SDS011;9211;48.818;9.312;2023-07-28T13:06:49;3.03;;;1.70;;
18172;SDS011;9211;48.818;9.312;2023-07-28T13:09:18;3.70;;;1.50;;
18172;SDS011;9211;48.818;9.312;2023-07-28T13:11:45;2.00;;;1.42;;
18172;SDS011;9211;48.818;9.312;2023-07-28T13:14:12;2.63;;;1.70;;
18172;SDS011;9211;48.818;9.312;2023-07-28T13:16:39;2.42;;;1.70;;
18172;SDS011;9211;48.818;9.312;2023-07-28T13:19:06;2.53;;;1.80;;
18172;SDS011;9211;48.818;9.312;2023-07-28T13:21:33;2.70;;;1.90;;
18172;SDS011;9211;48.818;9.312;2023-07-28T13:23:59;3.45;;;1.92;;
18172;SDS011;9211;48.818;9.312;2023-07-28T13:26:28;2.33;;;1.70;;
18172;SDS011;9211;48.818;9.312;2023-07-28T13:28:55;3.53;;;1.83;;
18172;SDS011;9211;48.818;9.312;2023-07-28T13:31:24;3.33;;;1.90;;
18172;SDS011;9211;48.818;9.312;2023-07-28T13:33:50;2.97;;;1.92;;
18172;SDS011;9211;48.818;9.312;2023-07-28T13:36:17;4.00;;;1.92;;
18172;SDS011;9211;48.818;9.312;2023-07-28T13:38:44;2.83;;;2.00;;
18172;SDS011;9211;48.818;9.312;2023-07-28T13:41:11;4.45;;;2.00;;
18172;SDS011;9211;48.818;9.312;2023-07-28T13:43:40;2.80;;;2.00;;
18172;SDS011;9211;48.818;9.312;2023-07-28T13:46:09;2.85;;;2.03;;
18172;SDS011;9211;48.818;9.312;2023-07-28T13:48:38;3.70;;;2.13;;
18172;SDS011;9211;48.818;9.312;2023-07-28T13:51:05;3.13;;;2.38;;
18172;SDS011;9211;48.818;9.312;2023-07-28T13:53:32;3.65;;;2.50;;
18172;SDS011;9211;48.818;9.312;2023-07-28T13:55:59;5.50;;;2.63;;
18172;SDS011;9211;48.818;9.312;2023-07-28T13:58:26;5.68;;;2.97;;
18172;SDS011;9211;48.818;9.312;2023-07-28T14:00:55;6.10;;;3.10;;
18172;SDS011;9211;48.818;9.312;2023-07-28T14:03:22;9.33;;;3.70;;
18172;SDS011;9211;48.818;9.312;2023-07-28T14:05:49;9.90;;;3.90;;
18172;SDS011;9211;48.818;9.312;2023-07-28T14:08:16;8.40;;;3.75;;
18172;SDS011;9211;48.818;9.312;2023-07-28T14:10:43;8.90;;;3.65;;
18172;SDS011;9211;48.818;9.312;2023-07-28T14:13:10;8.00;;;4.07;;
18172;SDS011;9211;48.818;9.312;2023-07-28T14:15:37;6.37;;;3.50;;
18172;SDS011;9211;48.818;9.312;2023-07-28T14:18:06;5.85;;;3.50;;
18172;SDS011;9211;48.818;9.312;2023-07-28T14:20:33;5.33;;;2.80;;
18172;SDS011;9211;48.818;9.312;2023-07-28T14:23:00;4.70;;;3.17;;
18172;SDS011;9211;48.818;9.312;2023-07-28T14:25:27;5.28;;;3.20;;
18172;SDS011;9211;48.818;9.312;2023-07-28T14:28:00;5.78;;;3.42;;
18172;SDS011;9211;48.818;9.312;2023-07-28T14:30:49;6.07;;;3.35;;
18172;SDS011;9211;48.818;9.312;2023-07-28T14:33:18;8.38;;;3.70;;
18172;SDS011;9211;48.818;9.312;2023-07-28T14:35:46;7.65;;;3.40;;
18172;SDS011;9211;48.818;9.312;2023-07-28T14:38:14;6.28;;;3.10;;
18172;SDS011;9211;48.818;9.312;2023-07-28T14:40:41;5.72;;;3.60;;
18172;SDS011;9211;48.818;9.312;2023-07-28T14:43:11;5.55;;;3.53;;
18172;SDS011;9211;48.818;9.312;2023-07-28T14:45:38;9.20;;;3.97;;
18172;SDS011;9211;48.818;9.312;2023-07-28T14:48:05;7.93;;;4.20;;
18172;SDS011;9211;48.818;9.312;2023-07-28T14:50:34;6.95;;;3.78;;
18172;SDS011;9211;48.818;9.312;2023-07-28T14:53:27;6.70;;;3.83;;
18172;SDS011;9211;48.818;9.312;2023-07-28T14:55:55;6.68;;;3.83;;
18172;SDS011;9211;48.818;9.312;2023-07-28T14:58:23;6.70;;;3.40;;
18172;SDS011;9211;48.818;9.312;2023-07-28T15:00:50;8.20;;;3.90;;
18172;SDS011;9211;48.818;9.312;2023-07-28T15:03:17;7.13;;;3.45;;
18172;SDS011;9211;48.818;9.312;2023-07-28T15:05:46;4.80;;;3.40;;
18172;SDS011;9211;48.818;9.312;2023-07-28T15:08:17;5.55;;;3.33;;
18172;SDS011;9211;48.818;9.312;2023-07-28T15:10:44;5.45;;;3.13;;